Fernwood, Washington
Current Conditions -  °F | °C
As of 8:15 PM on Wednesday 17 Dec 2014 (Local Time) from KPWT Reporting Station
Overcast Overcast  
Wind Chill: 43°   Ceiling: 300
Heat Index: 43°   Visibility: 5mi
Dew Point: 43°   Wind: 0mph
Humidity: 100%   Direction: NA
Pressure: 29.93"   Gusts: NA
Location:  47.5378°N, 122.589°W
Report Text: KPWT 180415Z AUTO 00000KT 5SM BKN003 OVC024 06/06 A2993 RMK AO1
Loading
Personal Weather Stations






























Interactive Weather Map New forecast layout! Learn more

10-Day Weather Forecast

Advertisements
Track Severe Weather on mobile